Portada
METAR-TAF:

METAR-TAF

Aeroports :

Kudat, Malàisia

latitud: 06-55N, longitud: 116-50E, altitud: 3 m

Observació

L'informe es va fer fa 24 minuts, a les 12:00 UTC
Vent 2 kt amb direcció variable
Temperatura 28°C
Humitat 70%
Pressió 1011 hPa
Visibilitat: 4000 m
Escasses núvols a una alçada de 1500 ft
Cel ennuvolat a una alçada de 28000 ft
calitja

METAR: WBKT 181200Z VRB02KT 4000 HZ FEW015 BKN280 28/22 Q1011

Hora: 20:24 (12:24 UTC)


TAF: manca

Observacions i pronòstics meteorològics de més de 4000 aeroports (METAR i TAF).

Les estacions disponibles són els punts grocs i vermells al mapa.

Posi el ratolí al punt desitjat per veure el nom de l'estació.

Feu clic per veure les observacions i els pronòstics meteorològics.

Per canviar el mapa: feu clic els botons verds amb una creu de color negre per apropar; al botó verd amb un guió per allunyar la imatge; o en les fletxes verdes per a mapes adjacents.


METAR-TAF: